sensor_id;sensor_type;location;lat;lon;timestamp;P1;durP1;ratioP1;P2;durP2;ratioP2
8683;SDS011;4379;59.744;18.206;2024-03-23T00:55:08;4.23;;;1.97;;
8683;SDS011;4379;59.744;18.206;2024-03-23T00:57:59;7.10;;;2.40;;
8683;SDS011;4379;59.744;18.206;2024-03-23T01:00:30;4.93;;;2.30;;
8683;SDS011;4379;59.744;18.206;2024-03-23T01:05:37;3.87;;;1.53;;
8683;SDS011;4379;59.744;18.206;2024-03-23T01:08:03;5.03;;;2.13;;
8683;SDS011;4379;59.744;18.206;2024-03-23T01:10:32;5.20;;;2.20;;
8683;SDS011;4379;59.744;18.206;2024-03-23T01:13:08;3.53;;;1.70;;
8683;SDS011;4379;59.744;18.206;2024-03-23T01:15:36;6.47;;;2.47;;
8683;SDS011;4379;59.744;18.206;2024-03-23T01:18:06;7.80;;;2.23;;
8683;SDS011;4379;59.744;18.206;2024-03-23T01:20:32;6.83;;;2.40;;
8683;SDS011;4379;59.744;18.206;2024-03-23T01:22:58;7.80;;;2.60;;
8683;SDS011;4379;59.744;18.206;2024-03-23T01:25:24;5.67;;;1.97;;
8683;SDS011;4379;59.744;18.206;2024-03-23T01:27:50;6.03;;;2.23;;
8683;SDS011;4379;59.744;18.206;2024-03-23T01:30:16;5.43;;;2.17;;
8683;SDS011;4379;59.744;18.206;2024-03-23T01:32:43;9.37;;;2.17;;
8683;SDS011;4379;59.744;18.206;2024-03-23T01:35:09;5.73;;;2.30;;
8683;SDS011;4379;59.744;18.206;2024-03-23T01:37:35;6.73;;;2.37;;
8683;SDS011;4379;59.744;18.206;2024-03-23T01:40:01;9.90;;;2.20;;
8683;SDS011;4379;59.744;18.206;2024-03-23T01:42:29;5.07;;;2.27;;
8683;SDS011;4379;59.744;18.206;2024-03-23T01:44:55;5.60;;;2.23;;
8683;SDS011;4379;59.744;18.206;2024-03-23T01:47:21;5.30;;;2.33;;
8683;SDS011;4379;59.744;18.206;2024-03-23T01:49:47;7.40;;;2.07;;
8683;SDS011;4379;59.744;18.206;2024-03-23T01:52:14;8.27;;;2.50;;
8683;SDS011;4379;59.744;18.206;2024-03-23T01:54:40;8.50;;;2.67;;
8683;SDS011;4379;59.744;18.206;2024-03-23T01:57:06;10.93;;;2.40;;
8683;SDS011;4379;59.744;18.206;2024-03-23T01:59:32;6.00;;;2.20;;
8683;SDS011;4379;59.744;18.206;2024-03-23T02:01:59;5.70;;;2.50;;
8683;SDS011;4379;59.744;18.206;2024-03-23T02:04:25;6.37;;;2.30;;
8683;SDS011;4379;59.744;18.206;2024-03-23T02:06:51;4.27;;;2.40;;
8683;SDS011;4379;59.744;18.206;2024-03-23T02:09:17;6.77;;;2.00;;
8683;SDS011;4379;59.744;18.206;2024-03-23T02:11:43;4.47;;;2.03;;
8683;SDS011;4379;59.744;18.206;2024-03-23T02:14:09;7.93;;;2.63;;
8683;SDS011;4379;59.744;18.206;2024-03-23T02:16:35;6.97;;;2.53;;
8683;SDS011;4379;59.744;18.206;2024-03-23T02:19:01;7.40;;;2.43;;
8683;SDS011;4379;59.744;18.206;2024-03-23T02:21:27;7.97;;;3.07;;
8683;SDS011;4379;59.744;18.206;2024-03-23T02:23:58;7.37;;;2.30;;
8683;SDS011;4379;59.744;18.206;2024-03-23T02:26:25;8.70;;;2.23;;
8683;SDS011;4379;59.744;18.206;2024-03-23T02:28:51;9.73;;;2.93;;
8683;SDS011;4379;59.744;18.206;2024-03-23T02:31:17;6.77;;;2.13;;
8683;SDS011;4379;59.744;18.206;2024-03-23T02:33:43;5.77;;;2.20;;
8683;SDS011;4379;59.744;18.206;2024-03-23T02:36:09;6.70;;;2.20;;
8683;SDS011;4379;59.744;18.206;2024-03-23T02:38:35;5.97;;;1.97;;
8683;SDS011;4379;59.744;18.206;2024-03-23T02:41:04;5.60;;;1.97;;
8683;SDS011;4379;59.744;18.206;2024-03-23T02:43:31;4.47;;;1.63;;
8683;SDS011;4379;59.744;18.206;2024-03-23T02:45:57;4.53;;;2.13;;
8683;SDS011;4379;59.744;18.206;2024-03-23T02:48:23;5.03;;;2.00;;
8683;SDS011;4379;59.744;18.206;2024-03-23T02:50:49;7.50;;;2.40;;
8683;SDS011;4379;59.744;18.206;2024-03-23T02:53:16;3.77;;;1.97;;
8683;SDS011;4379;59.744;18.206;2024-03-23T02:55:42;3.87;;;1.83;;
8683;SDS011;4379;59.744;18.206;2024-03-23T02:58:08;5.03;;;1.93;;
8683;SDS011;4379;59.744;18.206;2024-03-23T03:00:34;4.73;;;2.33;;
8683;SDS011;4379;59.744;18.206;2024-03-23T03:03:00;6.20;;;2.17;;
8683;SDS011;4379;59.744;18.206;2024-03-23T03:05:28;5.07;;;1.97;;
8683;SDS011;4379;59.744;18.206;2024-03-23T03:07:54;6.97;;;2.10;;
8683;SDS011;4379;59.744;18.206;2024-03-23T03:10:20;5.70;;;1.87;;
8683;SDS011;4379;59.744;18.206;2024-03-23T03:12:46;3.90;;;2.00;;
8683;SDS011;4379;59.744;18.206;2024-03-23T03:15:12;4.33;;;2.10;;
8683;SDS011;4379;59.744;18.206;2024-03-23T03:17:38;6.20;;;1.77;;
8683;SDS011;4379;59.744;18.206;2024-03-23T03:20:14;8.00;;;1.87;;
8683;SDS011;4379;59.744;18.206;2024-03-23T03:22:41;7.37;;;2.27;;
8683;SDS011;4379;59.744;18.206;2024-03-23T03:25:10;6.57;;;1.80;;
8683;SDS011;4379;59.744;18.206;2024-03-23T03:27:36;3.97;;;2.07;;
8683;SDS011;4379;59.744;18.206;2024-03-23T03:30:09;6.50;;;1.97;;
8683;SDS011;4379;59.744;18.206;2024-03-23T03:32:41;6.03;;;1.90;;
8683;SDS011;4379;59.744;18.206;2024-03-23T03:35:13;6.87;;;2.47;;
8683;SDS011;4379;59.744;18.206;2024-03-23T03:37:40;6.50;;;2.20;;
8683;SDS011;4379;59.744;18.206;2024-03-23T03:40:06;8.23;;;2.17;;
8683;SDS011;4379;59.744;18.206;2024-03-23T03:42:34;5.00;;;1.90;;
8683;SDS011;4379;59.744;18.206;2024-03-23T03:45:00;4.57;;;1.87;;
8683;SDS011;4379;59.744;18.206;2024-03-23T03:47:26;5.47;;;2.17;;
8683;SDS011;4379;59.744;18.206;2024-03-23T03:49:52;7.97;;;2.10;;
8683;SDS011;4379;59.744;18.206;2024-03-23T03:52:22;5.27;;;2.13;;
8683;SDS011;4379;59.744;18.206;2024-03-23T03:54:48;5.80;;;2.43;;
8683;SDS011;4379;59.744;18.206;2024-03-23T03:57:14;2.93;;;1.57;;
8683;SDS011;4379;59.744;18.206;2024-03-23T03:59:40;4.97;;;2.33;;
8683;SDS011;4379;59.744;18.206;2024-03-23T04:02:06;7.17;;;2.17;;
8683;SDS011;4379;59.744;18.206;2024-03-23T04:04:32;5.93;;;2.23;;
8683;SDS011;4379;59.744;18.206;2024-03-23T04:07:02;4.17;;;2.00;;
8683;SDS011;4379;59.744;18.206;2024-03-23T04:09:28;7.50;;;2.27;;
8683;SDS011;4379;59.744;18.206;2024-03-23T04:11:55;12.57;;;2.97;;
8683;SDS011;4379;59.744;18.206;2024-03-23T04:14:21;6.40;;;2.03;;
8683;SDS011;4379;59.744;18.206;2024-03-23T04:16:47;5.73;;;2.40;;
8683;SDS011;4379;59.744;18.206;2024-03-23T04:19:18;9.60;;;2.40;;
8683;SDS011;4379;59.744;18.206;2024-03-23T04:21:44;5.97;;;2.30;;
8683;SDS011;4379;59.744;18.206;2024-03-23T04:24:10;6.53;;;2.27;;
8683;SDS011;4379;59.744;18.206;2024-03-23T04:26:42;7.43;;;2.53;;
8683;SDS011;4379;59.744;18.206;2024-03-23T04:29:09;8.50;;;2.53;;
8683;SDS011;4379;59.744;18.206;2024-03-23T04:31:35;8.20;;;2.27;;
8683;SDS011;4379;59.744;18.206;2024-03-23T04:34:03;5.73;;;2.37;;
8683;SDS011;4379;59.744;18.206;2024-03-23T04:36:29;6.33;;;2.87;;
8683;SDS011;4379;59.744;18.206;2024-03-23T04:38:56;8.50;;;2.40;;
8683;SDS011;4379;59.744;18.206;2024-03-23T04:41:23;6.13;;;2.50;;
8683;SDS011;4379;59.744;18.206;2024-03-23T04:43:49;8.30;;;2.13;;
8683;SDS011;4379;59.744;18.206;2024-03-23T04:46:16;6.47;;;2.60;;
8683;SDS011;4379;59.744;18.206;2024-03-23T04:48:42;7.73;;;2.50;;
8683;SDS011;4379;59.744;18.206;2024-03-23T04:51:10;8.33;;;2.60;;
8683;SDS011;4379;59.744;18.206;2024-03-23T04:53:38;8.83;;;2.27;;
8683;SDS011;4379;59.744;18.206;2024-03-23T04:56:04;8.97;;;2.93;;
8683;SDS011;4379;59.744;18.206;2024-03-23T04:58:30;10.80;;;2.67;;
8683;SDS011;4379;59.744;18.206;2024-03-23T05:00:56;10.87;;;2.63;;
8683;SDS011;4379;59.744;18.206;2024-03-23T05:03:22;8.83;;;2.83;;
8683;SDS011;4379;59.744;18.206;2024-03-23T05:05:49;5.63;;;3.00;;
8683;SDS011;4379;59.744;18.206;2024-03-23T05:08:16;10.17;;;2.83;;
8683;SDS011;4379;59.744;18.206;2024-03-23T05:10:42;11.57;;;2.40;;
8683;SDS011;4379;59.744;18.206;2024-03-23T05:13:11;7.67;;;2.57;;
8683;SDS011;4379;59.744;18.206;2024-03-23T05:15:37;12.03;;;2.83;;
8683;SDS011;4379;59.744;18.206;2024-03-23T05:18:04;9.37;;;2.70;;
8683;SDS011;4379;59.744;18.206;2024-03-23T05:20:31;8.67;;;2.70;;
8683;SDS011;4379;59.744;18.206;2024-03-23T05:22:57;10.10;;;2.43;;
8683;SDS011;4379;59.744;18.206;2024-03-23T05:25:23;11.50;;;2.77;;
8683;SDS011;4379;59.744;18.206;2024-03-23T05:27:49;7.27;;;2.83;;
8683;SDS011;4379;59.744;18.206;2024-03-23T05:30:16;8.27;;;2.40;;
8683;SDS011;4379;59.744;18.206;2024-03-23T05:32:42;11.37;;;2.87;;
8683;SDS011;4379;59.744;18.206;2024-03-23T05:35:09;9.77;;;2.60;;
8683;SDS011;4379;59.744;18.206;2024-03-23T05:37:35;5.83;;;2.33;;
8683;SDS011;4379;59.744;18.206;2024-03-23T05:40:03;14.83;;;3.27;;
8683;SDS011;4379;59.744;18.206;2024-03-23T05:42:29;9.20;;;2.83;;
8683;SDS011;4379;59.744;18.206;2024-03-23T05:44:56;9.97;;;3.20;;
8683;SDS011;4379;59.744;18.206;2024-03-23T05:47:25;9.60;;;3.00;;
8683;SDS011;4379;59.744;18.206;2024-03-23T05:49:51;5.43;;;2.57;;
8683;SDS011;4379;59.744;18.206;2024-03-23T05:52:17;10.40;;;3.03;;
8683;SDS011;4379;59.744;18.206;2024-03-23T05:54:44;7.17;;;2.90;;
8683;SDS011;4379;59.744;18.206;2024-03-23T05:57:10;10.80;;;2.87;;
8683;SDS011;4379;59.744;18.206;2024-03-23T05:59:37;10.37;;;2.67;;
8683;SDS011;4379;59.744;18.206;2024-03-23T06:02:03;11.70;;;3.20;;
8683;SDS011;4379;59.744;18.206;2024-03-23T06:04:33;11.80;;;3.30;;
8683;SDS011;4379;59.744;18.206;2024-03-23T06:06:59;7.63;;;2.80;;
8683;SDS011;4379;59.744;18.206;2024-03-23T06:09:25;14.40;;;3.20;;
8683;SDS011;4379;59.744;18.206;2024-03-23T06:11:51;11.63;;;3.23;;
8683;SDS011;4379;59.744;18.206;2024-03-23T06:14:17;9.37;;;2.67;;
8683;SDS011;4379;59.744;18.206;2024-03-23T06:16:43;11.40;;;2.90;;
8683;SDS011;4379;59.744;18.206;2024-03-23T06:19:13;10.43;;;3.43;;
8683;SDS011;4379;59.744;18.206;2024-03-23T06:21:42;7.43;;;2.90;;
8683;SDS011;4379;59.744;18.206;2024-03-23T06:24:10;7.13;;;2.80;;
8683;SDS011;4379;59.744;18.206;2024-03-23T06:26:37;7.93;;;2.80;;
8683;SDS011;4379;59.744;18.206;2024-03-23T06:29:03;10.67;;;2.70;;
8683;SDS011;4379;59.744;18.206;2024-03-23T06:31:30;14.47;;;3.50;;
8683;SDS011;4379;59.744;18.206;2024-03-23T06:33:57;8.07;;;2.80;;
8683;SDS011;4379;59.744;18.206;2024-03-23T06:36:23;6.67;;;3.00;;
8683;SDS011;4379;59.744;18.206;2024-03-23T06:38:50;10.13;;;2.80;;
8683;SDS011;4379;59.744;18.206;2024-03-23T06:41:16;6.53;;;2.57;;
8683;SDS011;4379;59.744;18.206;2024-03-23T06:43:43;10.33;;;2.93;;
8683;SDS011;4379;59.744;18.206;2024-03-23T06:46:09;11.30;;;3.53;;
8683;SDS011;4379;59.744;18.206;2024-03-23T06:48:35;8.43;;;2.97;;
8683;SDS011;4379;59.744;18.206;2024-03-23T06:51:01;9.53;;;2.60;;
8683;SDS011;4379;59.744;18.206;2024-03-23T06:53:29;8.63;;;3.07;;
8683;SDS011;4379;59.744;18.206;2024-03-23T06:55:55;7.50;;;2.73;;
8683;SDS011;4379;59.744;18.206;2024-03-23T06:58:23;9.63;;;3.00;;
8683;SDS011;4379;59.744;18.206;2024-03-23T07:00:51;11.23;;;3.53;;
8683;SDS011;4379;59.744;18.206;2024-03-23T07:03:17;7.03;;;2.80;;
8683;SDS011;4379;59.744;18.206;2024-03-23T07:05:47;7.47;;;2.97;;
8683;SDS011;4379;59.744;18.206;2024-03-23T07:08:20;8.37;;;3.40;;
8683;SDS011;4379;59.744;18.206;2024-03-23T07:10:48;8.57;;;3.20;;
8683;SDS011;4379;59.744;18.206;2024-03-23T07:13:22;11.67;;;2.93;;
8683;SDS011;4379;59.744;18.206;2024-03-23T07:15:52;12.67;;;2.63;;
8683;SDS011;4379;59.744;18.206;2024-03-23T07:18:18;9.17;;;3.10;;
8683;SDS011;4379;59.744;18.206;2024-03-23T07:23:22;7.37;;;3.27;;
8683;SDS011;4379;59.744;18.206;2024-03-23T07:28:23;8.97;;;2.93;;
8683;SDS011;4379;59.744;18.206;2024-03-23T07:31:06;9.43;;;2.70;;
8683;SDS011;4379;59.744;18.206;2024-03-23T07:33:36;7.83;;;3.13;;
8683;SDS011;4379;59.744;18.206;2024-03-23T07:36:06;8.27;;;3.20;;
8683;SDS011;4379;59.744;18.206;2024-03-23T07:38:35;10.57;;;3.10;;
8683;SDS011;4379;59.744;18.206;2024-03-23T07:43:35;6.40;;;2.70;;
8683;SDS011;4379;59.744;18.206;2024-03-23T07:46:01;7.77;;;3.20;;
8683;SDS011;4379;59.744;18.206;2024-03-23T07:48:29;7.83;;;2.67;;
8683;SDS011;4379;59.744;18.206;2024-03-23T07:51:03;6.33;;;2.57;;
8683;SDS011;4379;59.744;18.206;2024-03-23T07:53:33;10.30;;;3.47;;
8683;SDS011;4379;59.744;18.206;2024-03-23T07:58:31;8.00;;;2.90;;
8683;SDS011;4379;59.744;18.206;2024-03-23T08:01:08;8.97;;;3.17;;
8683;SDS011;4379;59.744;18.206;2024-03-23T08:03:36;6.77;;;3.33;;
8683;SDS011;4379;59.744;18.206;2024-03-23T08:08:39;8.47;;;3.30;;
8683;SDS011;4379;59.744;18.206;2024-03-23T08:11:10;7.83;;;3.10;;
8683;SDS011;4379;59.744;18.206;2024-03-23T08:13:38;8.40;;;2.90;;
8683;SDS011;4379;59.744;18.206;2024-03-23T08:16:05;9.33;;;3.17;;
8683;SDS011;4379;59.744;18.206;2024-03-23T08:18:31;7.47;;;2.73;;
8683;SDS011;4379;59.744;18.206;2024-03-23T08:21:02;9.30;;;3.13;;
8683;SDS011;4379;59.744;18.206;2024-03-23T08:23:29;7.10;;;2.63;;
8683;SDS011;4379;59.744;18.206;2024-03-23T08:26:00;8.67;;;3.13;;
8683;SDS011;4379;59.744;18.206;2024-03-23T08:28:27;8.23;;;2.83;;
8683;SDS011;4379;59.744;18.206;2024-03-23T08:30:53;6.83;;;3.00;;
8683;SDS011;4379;59.744;18.206;2024-03-23T08:33:20;6.73;;;2.77;;
8683;SDS011;4379;59.744;18.206;2024-03-23T08:35:54;9.13;;;3.17;;
8683;SDS011;4379;59.744;18.206;2024-03-23T08:38:24;12.27;;;3.37;;
8683;SDS011;4379;59.744;18.206;2024-03-23T08:41:13;7.53;;;2.90;;
8683;SDS011;4379;59.744;18.206;2024-03-23T08:43:42;8.13;;;2.50;;
8683;SDS011;4379;59.744;18.206;2024-03-23T08:46:12;7.57;;;2.80;;
8683;SDS011;4379;59.744;18.206;2024-03-23T08:48:46;7.37;;;2.97;;
8683;SDS011;4379;59.744;18.206;2024-03-23T08:51:15;7.10;;;2.97;;
8683;SDS011;4379;59.744;18.206;2024-03-23T08:54:16;4.93;;;2.83;;
8683;SDS011;4379;59.744;18.206;2024-03-23T08:56:42;3.80;;;2.10;;
8683;SDS011;4379;59.744;18.206;2024-03-23T08:59:10;4.73;;;2.40;;
8683;SDS011;4379;59.744;18.206;2024-03-23T09:01:36;5.40;;;2.70;;
8683;SDS011;4379;59.744;18.206;2024-03-23T09:04:33;4.68;;;2.55;;
8683;SDS011;4379;59.744;18.206;2024-03-23T09:07:01;7.22;;;2.95;;
8683;SDS011;4379;59.744;18.206;2024-03-23T09:09:31;4.88;;;2.35;;
8683;SDS011;4379;59.744;18.206;2024-03-23T09:11:58;4.10;;;2.70;;
8683;SDS011;4379;59.744;18.206;2024-03-23T09:14:31;5.60;;;2.85;;
8683;SDS011;4379;59.744;18.206;2024-03-23T09:17:05;8.77;;;3.10;;
8683;SDS011;4379;59.744;18.206;2024-03-23T09:19:44;5.88;;;3.00;;
8683;SDS011;4379;59.744;18.206;2024-03-23T09:22:13;9.90;;;3.13;;
8683;SDS011;4379;59.744;18.206;2024-03-23T09:24:49;6.53;;;2.93;;
8683;SDS011;4379;59.744;18.206;2024-03-23T09:27:16;5.97;;;3.20;;
8683;SDS011;4379;59.744;18.206;2024-03-23T09:29:42;7.97;;;3.20;;
8683;SDS011;4379;59.744;18.206;2024-03-23T09:32:08;7.17;;;2.70;;
8683;SDS011;4379;59.744;18.206;2024-03-23T09:34:34;6.70;;;2.83;;
8683;SDS011;4379;59.744;18.206;2024-03-23T09:37:00;6.90;;;3.07;;
8683;SDS011;4379;59.744;18.206;2024-03-23T09:39:26;7.63;;;2.90;;
8683;SDS011;4379;59.744;18.206;2024-03-23T09:41:56;6.60;;;2.83;;
8683;SDS011;4379;59.744;18.206;2024-03-23T09:44:23;8.70;;;3.20;;
8683;SDS011;4379;59.744;18.206;2024-03-23T09:46:57;8.13;;;2.73;;
8683;SDS011;4379;59.744;18.206;2024-03-23T09:49:30;5.50;;;2.70;;
8683;SDS011;4379;59.744;18.206;2024-03-23T09:52:03;4.30;;;2.40;;
8683;SDS011;4379;59.744;18.206;2024-03-23T09:54:32;8.77;;;3.10;;
8683;SDS011;4379;59.744;18.206;2024-03-23T09:57:02;7.97;;;2.67;;
8683;SDS011;4379;59.744;18.206;2024-03-23T09:59:29;7.40;;;3.00;;
8683;SDS011;4379;59.744;18.206;2024-03-23T10:01:55;6.47;;;2.57;;
8683;SDS011;4379;59.744;18.206;2024-03-23T10:04:43;7.30;;;2.97;;
8683;SDS011;4379;59.744;18.206;2024-03-23T10:07:19;8.43;;;3.03;;
8683;SDS011;4379;59.744;18.206;2024-03-23T10:09:47;7.20;;;2.80;;
8683;SDS011;4379;59.744;18.206;2024-03-23T10:12:14;5.30;;;2.50;;
8683;SDS011;4379;59.744;18.206;2024-03-23T10:14:41;6.33;;;2.63;;
8683;SDS011;4379;59.744;18.206;2024-03-23T10:17:22;6.33;;;2.90;;
8683;SDS011;4379;59.744;18.206;2024-03-23T10:20:03;7.73;;;2.87;;
8683;SDS011;4379;59.744;18.206;2024-03-23T10:22:42;6.93;;;2.87;;
8683;SDS011;4379;59.744;18.206;2024-03-23T10:25:11;6.73;;;2.77;;
8683;SDS011;4379;59.744;18.206;2024-03-23T10:27:44;7.10;;;2.80;;
8683;SDS011;4379;59.744;18.206;2024-03-23T10:30:31;6.27;;;2.83;;
8683;SDS011;4379;59.744;18.206;2024-03-23T10:33:10;9.07;;;3.03;;
8683;SDS011;4379;59.744;18.206;2024-03-23T10:35:44;5.30;;;2.90;;
8683;SDS011;4379;59.744;18.206;2024-03-23T10:38:12;8.80;;;2.80;;
8683;SDS011;4379;59.744;18.206;2024-03-23T10:40:42;6.37;;;2.80;;
8683;SDS011;4379;59.744;18.206;2024-03-23T10:43:13;8.13;;;2.40;;
8683;SDS011;4379;59.744;18.206;2024-03-23T10:45:39;10.17;;;2.90;;
8683;SDS011;4379;59.744;18.206;2024-03-23T10:48:05;7.97;;;2.57;;
8683;SDS011;4379;59.744;18.206;2024-03-23T10:50:32;6.37;;;3.13;;
8683;SDS011;4379;59.744;18.206;2024-03-23T10:53:01;6.00;;;2.80;;
8683;SDS011;4379;59.744;18.206;2024-03-23T10:55:28;5.30;;;2.90;;
8683;SDS011;4379;59.744;18.206;2024-03-23T10:57:56;8.33;;;2.63;;
8683;SDS011;4379;59.744;18.206;2024-03-23T11:00:25;9.10;;;3.40;;
8683;SDS011;4379;59.744;18.206;2024-03-23T11:02:51;4.83;;;2.70;;
8683;SDS011;4379;59.744;18.206;2024-03-23T11:07:57;5.43;;;3.00;;
8683;SDS011;4379;59.744;18.206;2024-03-23T11:10:27;6.13;;;2.83;;
8683;SDS011;4379;59.744;18.206;2024-03-23T11:12:58;8.00;;;3.00;;
8683;SDS011;4379;59.744;18.206;2024-03-23T11:15:42;5.60;;;3.07;;
8683;SDS011;4379;59.744;18.206;2024-03-23T11:18:09;5.70;;;2.63;;
8683;SDS011;4379;59.744;18.206;2024-03-23T11:20:41;6.53;;;2.77;;
8683;SDS011;4379;59.744;18.206;2024-03-23T11:23:08;8.27;;;3.27;;
8683;SDS011;4379;59.744;18.206;2024-03-23T11:25:54;6.87;;;2.63;;
8683;SDS011;4379;59.744;18.206;2024-03-23T11:28:20;8.33;;;3.00;;
8683;SDS011;4379;59.744;18.206;2024-03-23T11:30:50;7.13;;;3.00;;
8683;SDS011;4379;59.744;18.206;2024-03-23T11:33:17;6.87;;;3.03;;
8683;SDS011;4379;59.744;18.206;2024-03-23T11:35:43;6.80;;;3.10;;
8683;SDS011;4379;59.744;18.206;2024-03-23T11:40:40;6.67;;;2.40;;
8683;SDS011;4379;59.744;18.206;2024-03-23T11:43:09;6.70;;;3.20;;
8683;SDS011;4379;59.744;18.206;2024-03-23T11:45:43;7.10;;;3.10;;
8683;SDS011;4379;59.744;18.206;2024-03-23T11:48:16;8.03;;;2.80;;
8683;SDS011;4379;59.744;18.206;2024-03-23T11:50:45;8.17;;;3.10;;
8683;SDS011;4379;59.744;18.206;2024-03-23T11:53:13;5.20;;;2.83;;
8683;SDS011;4379;59.744;18.206;2024-03-23T11:55:52;5.97;;;2.63;;
8683;SDS011;4379;59.744;18.206;2024-03-23T11:58:25;10.90;;;3.30;;
8683;SDS011;4379;59.744;18.206;2024-03-23T12:03:18;7.03;;;3.20;;
8683;SDS011;4379;59.744;18.206;2024-03-23T12:05:51;9.83;;;3.40;;
8683;SDS011;4379;59.744;18.206;2024-03-23T12:08:39;12.33;;;3.07;;
8683;SDS011;4379;59.744;18.206;2024-03-23T12:11:12;7.17;;;3.23;;
8683;SDS011;4379;59.744;18.206;2024-03-23T12:13:42;8.63;;;3.23;;
8683;SDS011;4379;59.744;18.206;2024-03-23T12:16:15;10.63;;;4.00;;
8683;SDS011;4379;59.744;18.206;2024-03-23T12:18:44;9.80;;;3.07;;
8683;SDS011;4379;59.744;18.206;2024-03-23T12:21:10;7.67;;;3.33;;
8683;SDS011;4379;59.744;18.206;2024-03-23T12:23:40;10.50;;;3.53;;
8683;SDS011;4379;59.744;18.206;2024-03-23T12:26:08;10.30;;;3.53;;
8683;SDS011;4379;59.744;18.206;2024-03-23T12:28:34;10.37;;;3.20;;
8683;SDS011;4379;59.744;18.206;2024-03-23T12:31:00;7.53;;;3.07;;
8683;SDS011;4379;59.744;18.206;2024-03-23T12:33:26;9.37;;;3.10;;
8683;SDS011;4379;59.744;18.206;2024-03-23T12:35:53;6.83;;;2.87;;
8683;SDS011;4379;59.744;18.206;2024-03-23T12:38:22;5.20;;;3.07;;
8683;SDS011;4379;59.744;18.206;2024-03-23T12:40:48;9.90;;;3.97;;
8683;SDS011;4379;59.744;18.206;2024-03-23T12:43:16;6.73;;;2.50;;
8683;SDS011;4379;59.744;18.206;2024-03-23T12:45:46;5.93;;;2.60;;
8683;SDS011;4379;59.744;18.206;2024-03-23T12:48:13;7.33;;;2.53;;
8683;SDS011;4379;59.744;18.206;2024-03-23T12:50:41;5.93;;;2.63;;
8683;SDS011;4379;59.744;18.206;2024-03-23T12:53:07;8.13;;;3.20;;
8683;SDS011;4379;59.744;18.206;2024-03-23T12:55:37;9.13;;;3.30;;
8683;SDS011;4379;59.744;18.206;2024-03-23T12:58:04;9.73;;;3.10;;
8683;SDS011;4379;59.744;18.206;2024-03-23T13:00:30;6.70;;;2.83;;
8683;SDS011;4379;59.744;18.206;2024-03-23T13:02:57;6.30;;;2.90;;
8683;SDS011;4379;59.744;18.206;2024-03-23T13:05:23;8.90;;;3.30;;
8683;SDS011;4379;59.744;18.206;2024-03-23T13:07:49;3.30;;;2.40;;
8683;SDS011;4379;59.744;18.206;2024-03-23T13:10:16;5.00;;;2.20;;
8683;SDS011;4379;59.744;18.206;2024-03-23T13:12:42;5.50;;;2.90;;
8683;SDS011;4379;59.744;18.206;2024-03-23T13:15:08;5.40;;;2.80;;
8683;SDS011;4379;59.744;18.206;2024-03-23T13:17:34;5.23;;;2.50;;
8683;SDS011;4379;59.744;18.206;2024-03-23T13:20:01;6.00;;;2.60;;
8683;SDS011;4379;59.744;18.206;2024-03-23T13:22:29;5.80;;;2.67;;
8683;SDS011;4379;59.744;18.206;2024-03-23T13:24:56;4.60;;;2.57;;
8683;SDS011;4379;59.744;18.206;2024-03-23T13:27:23;3.77;;;2.57;;
8683;SDS011;4379;59.744;18.206;2024-03-23T13:30:02;7.10;;;2.90;;
8683;SDS011;4379;59.744;18.206;2024-03-23T13:32:30;8.27;;;2.60;;
8683;SDS011;4379;59.744;18.206;2024-03-23T13:35:02;5.23;;;2.50;;
8683;SDS011;4379;59.744;18.206;2024-03-23T13:37:30;2.77;;;1.93;;
8683;SDS011;4379;59.744;18.206;2024-03-23T13:39:56;6.60;;;2.50;;
8683;SDS011;4379;59.744;18.206;2024-03-23T13:42:26;4.60;;;1.93;;
8683;SDS011;4379;59.744;18.206;2024-03-23T13:44:52;6.87;;;2.03;;
8683;SDS011;4379;59.744;18.206;2024-03-23T13:47:19;5.37;;;2.47;;
8683;SDS011;4379;59.744;18.206;2024-03-23T13:49:45;5.07;;;2.30;;
8683;SDS011;4379;59.744;18.206;2024-03-23T13:52:11;5.93;;;2.40;;
8683;SDS011;4379;59.744;18.206;2024-03-23T13:54:38;4.43;;;2.50;;
8683;SDS011;4379;59.744;18.206;2024-03-23T13:57:07;4.90;;;2.37;;
8683;SDS011;4379;59.744;18.206;2024-03-23T13:59:33;3.97;;;2.17;;
8683;SDS011;4379;59.744;18.206;2024-03-23T14:01:59;5.60;;;2.47;;
8683;SDS011;4379;59.744;18.206;2024-03-23T14:04:26;5.33;;;2.60;;
8683;SDS011;4379;59.744;18.206;2024-03-23T14:06:53;4.57;;;2.23;;
8683;SDS011;4379;59.744;18.206;2024-03-23T14:09:19;6.10;;;2.40;;
8683;SDS011;4379;59.744;18.206;2024-03-23T14:11:48;6.13;;;2.40;;
8683;SDS011;4379;59.744;18.206;2024-03-23T14:14:14;3.90;;;2.33;;
8683;SDS011;4379;59.744;18.206;2024-03-23T14:16:43;6.23;;;2.50;;
8683;SDS011;4379;59.744;18.206;2024-03-23T14:19:09;4.87;;;2.37;;
8683;SDS011;4379;59.744;18.206;2024-03-23T14:21:35;4.20;;;2.50;;
8683;SDS011;4379;59.744;18.206;2024-03-23T14:24:02;5.57;;;2.57;;
8683;SDS011;4379;59.744;18.206;2024-03-23T14:26:29;4.40;;;2.50;;
8683;SDS011;4379;59.744;18.206;2024-03-23T14:28:55;5.83;;;2.77;;
8683;SDS011;4379;59.744;18.206;2024-03-23T14:31:21;5.70;;;2.17;;
8683;SDS011;4379;59.744;18.206;2024-03-23T14:33:48;6.10;;;2.27;;
8683;SDS011;4379;59.744;18.206;2024-03-23T14:36:16;4.67;;;2.40;;
8683;SDS011;4379;59.744;18.206;2024-03-23T14:38:49;5.40;;;2.30;;
8683;SDS011;4379;59.744;18.206;2024-03-23T14:41:16;4.13;;;2.50;;
8683;SDS011;4379;59.744;18.206;2024-03-23T14:43:42;6.30;;;2.40;;
8683;SDS011;4379;59.744;18.206;2024-03-23T14:46:10;5.23;;;2.53;;
8683;SDS011;4379;59.744;18.206;2024-03-23T14:48:38;5.80;;;2.70;;
8683;SDS011;4379;59.744;18.206;2024-03-23T14:51:07;3.40;;;2.20;;
8683;SDS011;4379;59.744;18.206;2024-03-23T14:53:35;6.27;;;2.77;;
8683;SDS011;4379;59.744;18.206;2024-03-23T14:56:04;5.83;;;2.30;;
8683;SDS011;4379;59.744;18.206;2024-03-23T14:58:30;8.10;;;2.53;;
8683;SDS011;4379;59.744;18.206;2024-03-23T15:01:00;4.83;;;2.50;;
8683;SDS011;4379;59.744;18.206;2024-03-23T15:03:38;5.73;;;2.23;;
8683;SDS011;4379;59.744;18.206;2024-03-23T15:06:06;3.40;;;2.23;;
8683;SDS011;4379;59.744;18.206;2024-03-23T15:08:34;3.73;;;2.20;;
8683;SDS011;4379;59.744;18.206;2024-03-23T15:11:02;3.67;;;2.07;;
8683;SDS011;4379;59.744;18.206;2024-03-23T15:13:31;3.97;;;2.20;;
8683;SDS011;4379;59.744;18.206;2024-03-23T15:15:58;5.53;;;2.30;;
8683;SDS011;4379;59.744;18.206;2024-03-23T15:18:25;4.50;;;2.27;;
8683;SDS011;4379;59.744;18.206;2024-03-23T15:20:56;3.37;;;2.10;;
8683;SDS011;4379;59.744;18.206;2024-03-23T15:23:23;3.90;;;1.90;;
8683;SDS011;4379;59.744;18.206;2024-03-23T15:25:56;4.10;;;2.20;;
8683;SDS011;4379;59.744;18.206;2024-03-23T15:28:27;2.70;;;1.67;;
8683;SDS011;4379;59.744;18.206;2024-03-23T15:31:07;6.23;;;2.30;;
8683;SDS011;4379;59.744;18.206;2024-03-23T15:33:34;7.93;;;2.40;;
8683;SDS011;4379;59.744;18.206;2024-03-23T15:36:04;4.03;;;2.00;;
8683;SDS011;4379;59.744;18.206;2024-03-23T15:38:31;4.30;;;2.07;;
8683;SDS011;4379;59.744;18.206;2024-03-23T15:40:58;5.53;;;2.03;;
8683;SDS011;4379;59.744;18.206;2024-03-23T15:43:24;3.70;;;2.13;;
8683;SDS011;4379;59.744;18.206;2024-03-23T15:45:54;5.00;;;2.00;;
8683;SDS011;4379;59.744;18.206;2024-03-23T15:48:21;3.87;;;1.93;;
8683;SDS011;4379;59.744;18.206;2024-03-23T15:50:51;4.50;;;2.00;;
8683;SDS011;4379;59.744;18.206;2024-03-23T15:53:20;3.87;;;1.90;;
8683;SDS011;4379;59.744;18.206;2024-03-23T15:56:08;6.33;;;2.03;;
8683;SDS011;4379;59.744;18.206;2024-03-23T15:58:33;4.07;;;1.97;;
8683;SDS011;4379;59.744;18.206;2024-03-23T16:01:03;4.83;;;1.83;;
8683;SDS011;4379;59.744;18.206;2024-03-23T16:03:31;4.77;;;1.83;;
8683;SDS011;4379;59.744;18.206;2024-03-23T16:05:59;4.67;;;1.93;;
8683;SDS011;4379;59.744;18.206;2024-03-23T16:08:29;9.87;;;2.20;;
8683;SDS011;4379;59.744;18.206;2024-03-23T16:11:02;4.10;;;2.10;;
8683;SDS011;4379;59.744;18.206;2024-03-23T16:13:30;5.23;;;2.07;;
8683;SDS011;4379;59.744;18.206;2024-03-23T16:15:57;4.13;;;2.23;;
8683;SDS011;4379;59.744;18.206;2024-03-23T16:18:23;4.67;;;1.67;;
8683;SDS011;4379;59.744;18.206;2024-03-23T16:20:52;2.97;;;1.80;;
8683;SDS011;4379;59.744;18.206;2024-03-23T16:23:25;2.77;;;1.97;;
8683;SDS011;4379;59.744;18.206;2024-03-23T16:25:52;2.60;;;1.63;;